createdAt,value
2019-04-29T00:01:42.237Z,8.73
2019-04-29T00:04:14.033Z,8.13
2019-04-29T00:06:45.657Z,8.80
2019-04-29T00:09:19.497Z,8.10
2019-04-29T00:11:51.032Z,8.55
2019-04-29T00:14:22.551Z,9.43
2019-04-29T00:16:58.855Z,8.30
2019-04-29T00:19:32.186Z,8.35
2019-04-29T00:22:03.960Z,9.03
2019-04-29T00:24:35.310Z,9.15
2019-04-29T00:27:09.180Z,8.63
2019-04-29T00:29:40.614Z,7.70
2019-04-29T00:32:12.621Z,7.20
2019-04-29T00:34:44.042Z,7.58
2019-04-29T00:37:32.873Z,7.03
2019-04-29T00:40:23.462Z,7.78
2019-04-29T00:43:13.811Z,7.60
2019-04-29T00:45:50.483Z,7.10
2019-04-29T00:48:30.083Z,7.10
2019-04-29T00:51:04.543Z,6.87
2019-04-29T00:53:36.305Z,7.22
2019-04-29T00:56:12.813Z,7.28
2019-04-29T00:58:45.259Z,6.75
2019-04-29T01:01:18.462Z,6.33
2019-04-29T01:03:50.405Z,6.67
2019-04-29T01:06:22.066Z,7.25
2019-04-29T01:08:53.831Z,7.08
2019-04-29T01:11:25.681Z,6.67
2019-04-29T01:13:57.313Z,6.53
2019-04-29T01:16:28.932Z,6.45
2019-04-29T01:19:03.777Z,5.92
2019-04-29T01:21:34.459Z,7.10
2019-04-29T01:24:06.171Z,6.03
2019-04-29T01:26:58.072Z,6.40
2019-04-29T01:29:39.201Z,6.17
2019-04-29T01:32:11.728Z,6.10
2019-04-29T01:34:44.952Z,7.00
2019-04-29T01:37:16.658Z,6.43
2019-04-29T01:39:55.985Z,6.42
2019-04-29T01:42:32.465Z,6.33
2019-04-29T01:45:04.332Z,6.90
2019-04-29T01:47:35.654Z,6.60
2019-04-29T01:50:07.647Z,5.83
2019-04-29T01:52:39.203Z,6.25
2019-04-29T01:55:11.038Z,6.35
2019-04-29T01:57:42.719Z,6.80
2019-04-29T02:00:15.708Z,6.25
2019-04-29T02:02:47.362Z,6.20
2019-04-29T02:05:19.036Z,5.97
2019-04-29T02:07:50.686Z,6.72
2019-04-29T02:10:24.028Z,6.22
2019-04-29T02:12:55.950Z,6.10
2019-04-29T02:15:27.686Z,6.78
2019-04-29T02:17:59.317Z,6.37
2019-04-29T02:20:30.995Z,6.35
2019-04-29T02:23:04.260Z,6.40
2019-04-29T02:25:40.587Z,6.30
2019-04-29T02:28:12.125Z,6.40
2019-04-29T02:30:46.934Z,6.60
2019-04-29T02:33:18.404Z,6.33
2019-04-29T02:35:51.889Z,6.42
2019-04-29T02:38:38.414Z,7.50
2019-04-29T02:41:11.903Z,6.37
2019-04-29T02:43:47.851Z,7.27
2019-04-29T02:46:19.649Z,7.40
2019-04-29T02:48:51.394Z,7.30
2019-04-29T02:51:41.011Z,6.60
2019-04-29T02:54:13.152Z,6.50
2019-04-29T02:56:46.263Z,6.67
2019-04-29T02:59:29.388Z,7.23
2019-04-29T03:02:15.483Z,7.15
2019-04-29T03:04:52.247Z,7.00
2019-04-29T03:07:24.343Z,6.80
2019-04-29T03:09:56.471Z,6.58
2019-04-29T03:12:28.113Z,7.78
2019-04-29T03:14:59.974Z,7.45
2019-04-29T03:17:32.192Z,7.70
2019-04-29T03:20:12.386Z,7.72
2019-04-29T03:22:46.031Z,8.13
2019-04-29T03:25:17.555Z,8.30
2019-04-29T03:27:50.359Z,7.72
2019-04-29T03:30:22.217Z,7.87
2019-04-29T03:32:53.923Z,8.38
2019-04-29T03:35:26.686Z,8.73
2019-04-29T03:37:59.262Z,8.53
2019-04-29T03:40:30.811Z,7.40
2019-04-29T03:43:02.842Z,7.83
2019-04-29T03:45:34.501Z,8.10
2019-04-29T03:48:06.443Z,8.40
2019-04-29T03:50:38.362Z,8.15
2019-04-29T03:53:09.846Z,8.08
2019-04-29T03:55:42.874Z,8.30
2019-04-29T03:58:14.593Z,8.65
2019-04-29T04:00:47.955Z,8.00
2019-04-29T04:03:24.096Z,8.58
2019-04-29T04:06:01.152Z,8.95
2019-04-29T04:08:34.803Z,8.68
2019-04-29T04:13:38.121Z,9.03
2019-04-29T04:16:11.706Z,9.08
2019-04-29T04:18:43.553Z,9.73
2019-04-29T04:21:17.349Z,9.15
2019-04-29T04:23:49.087Z,9.40
2019-04-29T04:26:21.879Z,8.28
2019-04-29T04:28:53.813Z,8.95
2019-04-29T04:31:25.550Z,8.63
2019-04-29T04:33:59.020Z,8.10
2019-04-29T04:36:30.852Z,7.30
2019-04-29T04:39:02.991Z,7.05
2019-04-29T04:41:36.510Z,7.30
2019-04-29T04:44:08.428Z,7.33
2019-04-29T04:46:40.220Z,7.42
2019-04-29T04:49:15.605Z,7.08
2019-04-29T04:51:45.188Z,6.90
2019-04-29T04:54:17.190Z,7.12
2019-04-29T04:56:49.018Z,6.90
2019-04-29T04:59:20.909Z,6.72
2019-04-29T05:01:52.593Z,6.37
2019-04-29T05:04:25.571Z,6.25
2019-04-29T05:06:58.225Z,7.25
2019-04-29T05:09:30.159Z,6.85
2019-04-29T05:12:01.853Z,6.62
2019-04-29T05:14:33.465Z,7.45
2019-04-29T05:17:05.308Z,7.28
2019-04-29T05:19:38.151Z,7.83
2019-04-29T05:22:10.435Z,7.08
2019-04-29T05:24:42.107Z,7.25
2019-04-29T05:27:14.057Z,8.00
2019-04-29T05:29:45.815Z,9.90
2019-04-29T05:32:17.714Z,10.58
2019-04-29T05:34:51.255Z,11.55
2019-04-29T05:37:25.718Z,11.97
2019-04-29T05:39:58.094Z,13.75
2019-04-29T05:42:30.245Z,13.35
2019-04-29T05:45:09.883Z,13.43
2019-04-29T05:47:44.576Z,13.95
2019-04-29T05:50:35.322Z,14.98
2019-04-29T05:53:11.439Z,15.55
2019-04-29T05:55:43.341Z,14.65
2019-04-29T05:58:16.154Z,14.65
2019-04-29T06:01:01.975Z,15.23
2019-04-29T06:03:38.036Z,16.30
2019-04-29T06:06:12.205Z,14.80
2019-04-29T06:08:42.953Z,12.00
2019-04-29T06:11:17.686Z,12.70
2019-04-29T06:13:51.183Z,13.03
2019-04-29T06:16:23.215Z,11.10
2019-04-29T06:19:00.409Z,11.55
2019-04-29T06:21:28.794Z,11.50
2019-04-29T06:24:04.475Z,11.73
2019-04-29T06:26:34.145Z,11.90
2019-04-29T06:29:06.245Z,11.60
2019-04-29T06:31:38.582Z,11.40
2019-04-29T06:34:10.662Z,11.03
2019-04-29T06:36:43.557Z,11.48
2019-04-29T06:39:15.779Z,11.08
2019-04-29T06:41:47.688Z,10.15
2019-04-29T06:44:19.432Z,10.15
2019-04-29T06:46:54.516Z,10.23
2019-04-29T06:49:25.114Z,9.73
2019-04-29T06:51:58.492Z,9.53
2019-04-29T06:54:30.353Z,9.78
2019-04-29T06:57:02.255Z,11.97
2019-04-29T06:59:34.207Z,12.33
2019-04-29T07:02:09.353Z,13.40
2019-04-29T07:04:41.610Z,14.03
2019-04-29T07:07:14.872Z,14.17
2019-04-29T07:09:46.833Z,14.13
2019-04-29T07:12:19.550Z,13.72
2019-04-29T07:14:51.373Z,14.75
2019-04-29T07:17:24.986Z,14.25
2019-04-29T07:20:02.078Z,15.25
2019-04-29T07:22:43.255Z,14.33
2019-04-29T07:25:15.920Z,15.28
2019-04-29T07:27:49.176Z,14.78
2019-04-29T07:30:21.256Z,13.45
2019-04-29T07:32:54.103Z,13.65
2019-04-29T07:35:26.050Z,13.80
2019-04-29T07:37:58.027Z,14.33
2019-04-29T07:40:30.174Z,14.10
2019-04-29T07:43:02.853Z,12.80
2019-04-29T07:45:44.003Z,14.00
2019-04-29T07:48:10.584Z,13.28
2019-04-29T07:50:45.513Z,12.60
2019-04-29T07:53:20.942Z,13.60
2019-04-29T07:55:52.440Z,12.60
2019-04-29T07:58:27.389Z,12.25
2019-04-29T08:00:57.975Z,13.03
2019-04-29T08:03:31.870Z,12.93
2019-04-29T08:06:04.908Z,14.87
2019-04-29T08:08:38.830Z,13.90
2019-04-29T08:11:12.747Z,10.72
2019-04-29T08:13:45.781Z,10.17
2019-04-29T08:16:19.238Z,9.13
2019-04-29T08:18:53.604Z,9.25
2019-04-29T08:21:24.586Z,9.25
2019-04-29T08:23:58.600Z,8.58
2019-04-29T08:26:33.581Z,9.18
2019-04-29T08:29:04.641Z,8.05
2019-04-29T08:31:38.926Z,8.48
2019-04-29T08:34:12.285Z,8.28
2019-04-29T08:36:50.513Z,8.65
2019-04-29T08:39:25.199Z,9.98
2019-04-29T08:42:03.740Z,9.05
2019-04-29T08:44:43.119Z,8.30
2019-04-29T08:47:23.678Z,9.15
2019-04-29T08:49:54.532Z,9.48
2019-04-29T08:52:26.691Z,10.28
2019-04-29T08:55:04.721Z,10.10
2019-04-29T08:57:45.436Z,10.43
2019-04-29T09:00:18.862Z,10.50
2019-04-29T09:02:50.537Z,10.50
2019-04-29T09:05:24.017Z,10.63
2019-04-29T09:07:57.375Z,10.78
2019-04-29T09:10:33.042Z,9.90
2019-04-29T09:13:05.341Z,9.35
2019-04-29T09:15:37.124Z,8.83
2019-04-29T09:18:11.298Z,9.08
2019-04-29T09:23:19.821Z,8.88
2019-04-29T09:26:02.552Z,9.28
2019-04-29T09:28:29.873Z,9.20
2019-04-29T09:31:01.883Z,8.53
2019-04-29T09:33:35.759Z,9.15
2019-04-29T09:36:09.668Z,7.83
2019-04-29T09:38:41.414Z,8.73
2019-04-29T09:41:35.035Z,7.92
2019-04-29T09:44:09.331Z,11.57
2019-04-29T09:46:40.941Z,13.32
2019-04-29T09:49:14.653Z,12.73
2019-04-29T09:51:47.118Z,12.47
2019-04-29T09:54:20.203Z,12.43
2019-04-29T09:56:52.066Z,11.48
2019-04-29T09:59:32.295Z,12.80
2019-04-29T10:02:12.927Z,14.07
2019-04-29T10:04:56.823Z,13.05
2019-04-29T10:07:26.957Z,14.15
2019-04-29T10:10:06.941Z,13.40
2019-04-29T10:12:38.905Z,15.55
2019-04-29T10:15:39.875Z,17.67
2019-04-29T10:21:05.812Z,13.78
2019-04-29T10:23:54.351Z,14.87
2019-04-29T10:26:29.069Z,17.15
2019-04-29T10:29:03.545Z,17.02
2019-04-29T10:31:38.236Z,18.32
2019-04-29T10:34:13.839Z,18.80
2019-04-29T10:36:52.214Z,20.12
2019-04-29T10:39:42.416Z,20.50
2019-04-29T10:42:42.102Z,20.37
2019-04-29T10:45:36.187Z,22.00
2019-04-29T10:50:54.026Z,20.85
2019-04-29T10:53:28.805Z,20.05
2019-04-29T10:56:05.630Z,19.60
2019-04-29T10:58:45.423Z,17.92
2019-04-29T11:02:09.136Z,17.95
2019-04-29T11:04:47.019Z,16.40
2019-04-29T11:07:39.298Z,17.02
2019-04-29T11:10:25.345Z,16.05
2019-04-29T11:13:04.421Z,17.02
2019-04-29T11:15:49.522Z,16.25
2019-04-29T11:18:24.903Z,19.32
2019-04-29T11:21:01.096Z,18.90
2019-04-29T11:23:43.569Z,18.02
2019-04-29T11:26:37.527Z,17.02
2019-04-29T11:29:29.162Z,17.17
2019-04-29T11:32:04.874Z,17.02
2019-04-29T11:34:48.383Z,17.75
2019-04-29T11:37:24.243Z,18.23
2019-04-29T11:39:58.707Z,20.05
2019-04-29T11:42:36.783Z,17.85
2019-04-29T11:45:15.316Z,16.20
2019-04-29T11:47:50.858Z,15.85
2019-04-29T11:50:45.250Z,15.58
2019-04-29T11:53:18.019Z,15.88
2019-04-29T11:55:52.517Z,15.38
2019-04-29T11:58:30.325Z,15.58
2019-04-29T12:01:37.934Z,14.47
2019-04-29T12:04:16.549Z,14.70
2019-04-29T12:06:51.360Z,15.43
2019-04-29T12:09:25.450Z,15.57
2019-04-29T12:11:57.461Z,15.43
2019-04-29T12:14:41.422Z,15.23
2019-04-29T12:17:15.842Z,14.43
2019-04-29T12:19:48.975Z,14.53
2019-04-29T12:22:30.330Z,14.87
2019-04-29T12:24:54.207Z,14.70
2019-04-29T12:27:29.154Z,14.80
2019-04-29T12:30:01.735Z,14.38
2019-04-29T12:32:36.087Z,13.78
2019-04-29T12:35:16.713Z,13.93
2019-04-29T12:37:48.565Z,14.87
2019-04-29T12:40:39.171Z,11.70
2019-04-29T12:43:17.736Z,12.03
2019-04-29T12:45:57.214Z,12.20
2019-04-29T12:48:30.887Z,11.22
2019-04-29T12:51:03.832Z,10.13
2019-04-29T12:53:35.666Z,9.15
2019-04-29T12:56:11.461Z,8.95
2019-04-29T12:58:41.021Z,8.83
2019-04-29T13:01:50.254Z,8.38
2019-04-29T13:04:10.856Z,9.08
2019-04-29T13:06:48.161Z,8.05
2019-04-29T13:09:30.701Z,8.03
2019-04-29T13:12:17.677Z,7.83
2019-04-29T13:14:39.130Z,9.58
2019-04-29T13:17:14.743Z,8.15
2019-04-29T13:20:01.553Z,8.20
2019-04-29T13:22:27.068Z,8.63
2019-04-29T13:24:58.992Z,7.80
2019-04-29T13:27:30.553Z,7.97
2019-04-29T13:30:07.246Z,8.50
2019-04-29T13:35:12.226Z,5.95
2019-04-29T13:37:43.358Z,8.28
2019-04-29T13:40:15.330Z,6.70
2019-04-29T13:42:50.988Z,6.75
2019-04-29T13:45:36.318Z,6.65
2019-04-29T13:48:18.255Z,6.70
2019-04-29T13:50:53.196Z,6.50
2019-04-29T13:53:25.023Z,7.65
2019-04-29T13:56:10.981Z,6.58
2019-04-29T14:01:23.872Z,7.05
2019-04-29T14:03:51.408Z,6.35
2019-04-29T14:06:23.205Z,7.05
2019-04-29T14:08:54.769Z,6.87
2019-04-29T14:11:27.713Z,6.75
2019-04-29T14:13:59.396Z,6.90
2019-04-29T14:16:32.488Z,7.92
2019-04-29T14:19:04.157Z,8.80
2019-04-29T14:21:36.211Z,9.18
2019-04-29T14:24:08.785Z,8.73
2019-04-29T14:26:44.936Z,8.35
2019-04-29T14:29:15.744Z,8.35
2019-04-29T14:31:49.082Z,8.73
2019-04-29T14:34:22.433Z,8.08
2019-04-29T14:37:18.440Z,8.63
2019-04-29T14:39:37.415Z,9.13
2019-04-29T14:42:17.110Z,8.30
2019-04-29T14:44:50.487Z,8.48
2019-04-29T14:47:25.762Z,8.98
2019-04-29T14:50:02.059Z,12.35
2019-04-29T14:52:35.402Z,9.60
2019-04-29T14:55:08.052Z,9.50
2019-04-29T14:57:40.947Z,9.35
2019-04-29T15:00:19.763Z,9.25
2019-04-29T15:02:55.789Z,9.18
2019-04-29T15:05:25.570Z,9.13
2019-04-29T15:07:57.380Z,9.23
2019-04-29T15:10:31.132Z,9.63
2019-04-29T15:13:20.807Z,9.85
2019-04-29T15:16:04.362Z,9.95
2019-04-29T15:18:47.273Z,9.68
2019-04-29T15:21:32.335Z,9.50
2019-04-29T15:23:57.800Z,10.20
2019-04-29T15:26:30.885Z,12.40
2019-04-29T15:29:03.343Z,12.45
2019-04-29T15:31:35.205Z,12.70
2019-04-29T15:34:08.812Z,12.25
2019-04-29T15:36:42.038Z,12.35
2019-04-29T15:39:14.605Z,12.88
2019-04-29T15:41:46.657Z,13.03
2019-04-29T15:44:20.402Z,13.62
2019-04-29T15:46:52.103Z,13.60
2019-04-29T15:49:24.666Z,14.18
2019-04-29T15:51:57.400Z,13.93
2019-04-29T15:54:32.271Z,13.65
2019-04-29T15:57:09.127Z,13.45
2019-04-29T15:59:48.837Z,12.78
2019-04-29T16:02:14.586Z,14.38
2019-04-29T16:05:00.113Z,14.75
2019-04-29T16:07:51.530Z,14.13
2019-04-29T16:10:34.457Z,14.83
2019-04-29T16:13:10.786Z,14.13
2019-04-29T16:15:47.077Z,14.80
2019-04-29T16:18:19.903Z,15.23
2019-04-29T16:20:54.047Z,15.28
2019-04-29T16:23:25.196Z,15.80
2019-04-29T16:25:57.126Z,16.10
2019-04-29T16:28:31.371Z,15.10
2019-04-29T16:31:05.049Z,14.78
2019-04-29T16:33:36.835Z,16.32
2019-04-29T16:36:08.557Z,16.07
2019-04-29T16:38:40.402Z,16.20
2019-04-29T16:41:27.367Z,15.58
2019-04-29T16:44:01.201Z,15.88
2019-04-29T16:46:37.511Z,15.63
2019-04-29T16:49:07.614Z,15.90
2019-04-29T16:51:40.765Z,14.83
2019-04-29T16:54:19.411Z,16.40
2019-04-29T16:56:46.047Z,16.60
2019-04-29T16:59:18.002Z,15.80
2019-04-29T17:01:49.945Z,15.65
2019-04-29T17:04:21.976Z,15.70
2019-04-29T17:07:11.855Z,16.42
2019-04-29T17:09:31.722Z,17.62
2019-04-29T17:12:03.853Z,17.30
2019-04-29T17:15:02.440Z,18.05
2019-04-29T17:17:15.932Z,17.73
2019-04-29T17:19:48.277Z,17.15
2019-04-29T17:22:25.919Z,17.00
2019-04-29T17:24:53.839Z,17.40
2019-04-29T17:27:45.360Z,17.67
2019-04-29T17:30:38.322Z,17.55
2019-04-29T17:33:25.809Z,18.55
2019-04-29T17:35:51.306Z,17.73
2019-04-29T17:38:24.577Z,16.40
2019-04-29T17:40:56.486Z,16.17
2019-04-29T17:43:42.947Z,17.25
2019-04-29T17:46:30.980Z,16.07
2019-04-29T17:49:05.274Z,16.55
2019-04-29T17:51:38.567Z,17.20
2019-04-29T17:54:18.447Z,16.85
2019-04-29T17:57:08.611Z,16.93
2019-04-29T17:59:32.494Z,15.53
2019-04-29T18:02:08.982Z,15.15
2019-04-29T18:04:45.598Z,16.32
2019-04-29T18:07:25.245Z,16.93
2019-04-29T18:10:05.097Z,15.83
2019-04-29T18:12:40.923Z,15.32
2019-04-29T18:15:17.679Z,15.50
2019-04-29T18:17:49.293Z,15.45
2019-04-29T18:20:30.801Z,16.50
2019-04-29T18:23:19.124Z,15.30
2019-04-29T18:25:52.444Z,15.32
2019-04-29T18:28:25.950Z,14.63
2019-04-29T18:31:00.236Z,14.70
2019-04-29T18:33:32.670Z,14.45
2019-04-29T18:36:06.953Z,13.95
2019-04-29T18:38:42.441Z,14.55
2019-04-29T18:43:46.625Z,16.37
2019-04-29T18:46:18.730Z,13.08
2019-04-29T18:48:50.340Z,12.47
2019-04-29T18:51:25.686Z,13.40
2019-04-29T18:53:55.608Z,13.35
2019-04-29T18:56:27.617Z,11.78
2019-04-29T18:59:00.921Z,11.95
2019-04-29T19:01:34.928Z,14.10
2019-04-29T19:04:25.469Z,12.80
2019-04-29T19:07:02.133Z,12.68
2019-04-29T19:09:35.758Z,12.82
2019-04-29T19:12:14.534Z,12.45
2019-04-29T19:14:59.745Z,13.22
2019-04-29T19:17:30.764Z,13.28
2019-04-29T19:20:01.449Z,13.13
2019-04-29T19:22:33.413Z,12.95
2019-04-29T19:25:08.688Z,12.78
2019-04-29T19:27:40.813Z,14.30
2019-04-29T19:30:20.682Z,13.85
2019-04-29T19:32:48.646Z,14.93
2019-04-29T19:35:29.510Z,15.23
2019-04-29T19:38:00.249Z,13.85
2019-04-29T19:40:41.199Z,14.57
2019-04-29T19:43:10.230Z,15.85
2019-04-29T19:45:44.739Z,15.35
2019-04-29T19:48:16.277Z,14.98
2019-04-29T19:50:59.642Z,16.32
2019-04-29T19:53:25.163Z,16.15
2019-04-29T19:56:04.154Z,17.27
2019-04-29T19:58:32.209Z,16.50
2019-04-29T20:01:11.629Z,17.35
2019-04-29T20:03:49.488Z,17.70
2019-04-29T20:06:25.759Z,17.10
2019-04-29T20:08:57.142Z,16.35
2019-04-29T20:14:05.446Z,17.10
2019-04-29T20:16:59.399Z,18.25
2019-04-29T20:19:45.618Z,18.12
2019-04-29T20:22:16.905Z,17.90
2019-04-29T20:24:50.751Z,17.42
2019-04-29T20:27:26.146Z,18.12
2019-04-29T20:29:56.789Z,17.98
2019-04-29T20:32:31.863Z,18.73
2019-04-29T20:35:07.058Z,19.30
2019-04-29T20:37:36.444Z,19.50
2019-04-29T20:40:09.007Z,19.87
2019-04-29T20:42:45.242Z,19.40
2019-04-29T20:47:52.687Z,19.45
2019-04-29T20:50:31.067Z,19.98
2019-04-29T20:53:05.773Z,21.97
2019-04-29T20:55:39.798Z,23.35
2019-04-29T20:58:15.680Z,24.80
2019-04-29T21:00:47.699Z,24.55
2019-04-29T21:03:27.836Z,27.60
2019-04-29T21:06:02.720Z,26.90
2019-04-29T21:08:31.322Z,31.68
2019-04-29T21:11:05.757Z,30.20
2019-04-29T21:13:42.207Z,27.35
2019-04-29T21:16:16.859Z,29.77
2019-04-29T21:18:58.910Z,30.80
2019-04-29T21:21:31.692Z,35.08
2019-04-29T21:24:12.920Z,30.88
2019-04-29T21:26:44.431Z,27.80
2019-04-29T21:29:19.357Z,26.50
2019-04-29T21:31:58.476Z,25.68
2019-04-29T21:34:29.670Z,24.82
2019-04-29T21:37:06.586Z,25.12
2019-04-29T21:39:39.110Z,25.10
2019-04-29T21:42:16.262Z,26.27
2019-04-29T21:44:48.781Z,27.30
2019-04-29T21:47:22.284Z,29.42
2019-04-29T21:49:56.270Z,27.77
2019-04-29T21:52:27.267Z,34.60
2019-04-29T21:54:58.974Z,36.60
2019-04-29T21:57:30.791Z,32.53
2019-04-29T22:00:03.420Z,28.50
2019-04-29T22:02:36.738Z,28.90
2019-04-29T22:05:13.744Z,29.40
2019-04-29T22:07:44.691Z,29.12
2019-04-29T22:10:22.703Z,29.00
2019-04-29T22:12:50.963Z,31.97
2019-04-29T22:15:30.700Z,33.92
2019-04-29T22:18:01.311Z,32.25
2019-04-29T22:20:37.363Z,29.82
2019-04-29T22:23:08.351Z,30.57
2019-04-29T22:25:41.071Z,32.83
2019-04-29T22:28:16.075Z,29.72
2019-04-29T22:30:49.819Z,31.60
2019-04-29T22:33:20.068Z,34.58
2019-04-29T22:35:52.230Z,32.03
2019-04-29T22:38:25.007Z,33.55
2019-04-29T22:40:58.619Z,31.40
2019-04-29T22:43:50.188Z,35.98
2019-04-29T22:46:21.907Z,44.40
2019-04-29T22:48:53.759Z,40.00
2019-04-29T22:51:27.193Z,36.48
2019-04-29T22:53:58.919Z,34.13
2019-04-29T22:56:30.941Z,30.72
2019-04-29T22:59:02.935Z,33.83
2019-04-29T23:01:36.362Z,35.23
2019-04-29T23:04:09.608Z,34.40
2019-04-29T23:06:46.597Z,38.00
2019-04-29T23:11:47.554Z,35.75
2019-04-29T23:14:19.321Z,40.80
2019-04-29T23:16:52.867Z,39.65
2019-04-29T23:19:26.054Z,38.00
2019-04-29T23:22:16.973Z,37.95
2019-04-29T23:24:59.143Z,40.83
2019-04-29T23:27:30.969Z,39.20
2019-04-29T23:30:02.867Z,39.18
2019-04-29T23:32:39.545Z,44.88
2019-04-29T23:35:10.034Z,43.50
2019-04-29T23:37:41.939Z,42.20
2019-04-29T23:40:14.069Z,40.35
2019-04-29T23:42:47.985Z,39.50
2019-04-29T23:45:21.303Z,42.38
2019-04-29T23:47:55.409Z,37.10
2019-04-29T23:50:28.137Z,37.98
2019-04-29T23:52:59.673Z,34.40
2019-04-29T23:55:31.375Z,37.53
2019-04-29T23:58:07.793Z,34.38
